createdAt,value
2017-11-14T00:01:57.929Z,80.30
2017-11-14T00:04:25.051Z,80.30
2017-11-14T00:06:51.438Z,80.20
2017-11-14T00:09:17.824Z,80.20
2017-11-14T00:11:44.203Z,80.30
2017-11-14T00:14:10.581Z,80.00
2017-11-14T00:16:36.998Z,80.00
2017-11-14T00:19:03.413Z,80.20
2017-11-14T00:21:29.809Z,80.30
2017-11-14T00:23:57.101Z,80.90
2017-11-14T00:26:23.514Z,80.90
2017-11-14T00:28:49.942Z,80.90
2017-11-14T00:31:16.343Z,81.00
2017-11-14T00:33:42.745Z,81.50
2017-11-14T00:36:09.118Z,81.90
2017-11-14T00:38:36.259Z,82.20
2017-11-14T00:41:02.653Z,82.20
2017-11-14T00:43:29.083Z,82.20
2017-11-14T00:45:55.488Z,82.30
2017-11-14T00:48:21.879Z,82.30
2017-11-14T00:50:49.127Z,82.10
2017-11-14T00:53:15.527Z,82.10
2017-11-14T00:55:41.905Z,82.20
2017-11-14T00:58:08.337Z,82.10
2017-11-14T01:00:34.730Z,82.50
2017-11-14T01:03:01.135Z,81.60
2017-11-14T01:05:27.588Z,81.90
2017-11-14T01:07:53.994Z,81.80
2017-11-14T01:10:21.117Z,81.80
2017-11-14T01:12:47.489Z,81.70
2017-11-14T01:15:13.938Z,82.40
2017-11-14T01:17:40.320Z,82.00
2017-11-14T01:20:07.456Z,82.00
2017-11-14T01:22:34.591Z,81.80
2017-11-14T01:25:00.975Z,81.80
2017-11-14T01:27:27.370Z,81.50
2017-11-14T01:29:53.764Z,81.10
2017-11-14T01:32:20.168Z,81.10
2017-11-14T01:34:46.621Z,81.10
2017-11-14T01:37:13.038Z,80.90
2017-11-14T01:39:39.436Z,80.90
2017-11-14T01:42:05.850Z,81.30
2017-11-14T01:44:32.952Z,81.10
2017-11-14T01:46:59.373Z,81.10
2017-11-14T01:49:26.502Z,81.10
2017-11-14T01:51:52.880Z,81.10
2017-11-14T01:54:19.289Z,81.00
2017-11-14T01:56:46.419Z,81.60
2017-11-14T01:59:13.548Z,81.70
2017-11-14T02:01:39.943Z,81.70
2017-11-14T02:04:06.386Z,81.60
2017-11-14T02:06:32.824Z,81.50
2017-11-14T02:08:59.268Z,81.50
2017-11-14T02:11:25.690Z,81.50
2017-11-14T02:13:52.099Z,82.00
2017-11-14T02:16:18.515Z,82.30
2017-11-14T02:18:44.961Z,82.50
2017-11-14T02:21:11.390Z,82.20
2017-11-14T02:23:37.817Z,82.10
2017-11-14T02:26:04.246Z,82.00
2017-11-14T02:28:30.665Z,81.70
2017-11-14T02:30:57.858Z,81.20
2017-11-14T02:33:24.290Z,81.20
2017-11-14T02:35:50.849Z,81.00
2017-11-14T02:38:17.291Z,80.70
2017-11-14T02:40:43.735Z,80.80
2017-11-14T02:43:10.918Z,80.70
2017-11-14T02:45:37.372Z,80.70
2017-11-14T02:48:03.811Z,80.70
2017-11-14T02:50:30.237Z,80.70
2017-11-14T02:52:56.679Z,81.00
2017-11-14T02:55:23.135Z,80.90
2017-11-14T02:57:49.528Z,81.40
2017-11-14T03:00:15.980Z,82.10
2017-11-14T03:02:42.376Z,82.20
2017-11-14T03:05:08.795Z,82.50
2017-11-14T03:07:35.963Z,82.60
2017-11-14T03:10:02.397Z,82.50
2017-11-14T03:12:28.844Z,82.60
2017-11-14T03:14:55.247Z,82.20
2017-11-14T03:17:22.429Z,82.30
2017-11-14T03:19:48.904Z,82.40
2017-11-14T03:22:15.312Z,82.20
2017-11-14T03:24:41.732Z,83.00
2017-11-14T03:27:08.117Z,82.90
2017-11-14T03:29:35.271Z,82.50
2017-11-14T03:32:02.456Z,81.70
2017-11-14T03:34:28.871Z,81.70
2017-11-14T03:36:55.325Z,81.50
2017-11-14T03:39:21.743Z,81.40
2017-11-14T03:41:48.200Z,81.40
2017-11-14T03:44:14.634Z,81.40
2017-11-14T03:46:41.037Z,81.30
2017-11-14T03:49:07.474Z,81.20
2017-11-14T03:51:33.896Z,81.60
2017-11-14T03:54:01.052Z,81.20
2017-11-14T03:56:27.474Z,81.20
2017-11-14T03:58:54.619Z,82.00
2017-11-14T04:01:21.744Z,82.00
2017-11-14T04:03:48.160Z,82.00
2017-11-14T04:06:14.573Z,82.30
2017-11-14T04:08:40.978Z,82.30
2017-11-14T04:11:08.169Z,82.30
2017-11-14T04:13:34.615Z,82.30
2017-11-14T04:16:01.026Z,82.70
2017-11-14T04:18:27.416Z,83.20
2017-11-14T04:20:54.537Z,82.90
2017-11-14T04:23:20.943Z,82.90
2017-11-14T04:25:47.329Z,84.00
2017-11-14T04:28:13.777Z,83.90
2017-11-14T04:30:40.167Z,84.00
2017-11-14T04:33:06.561Z,83.90
2017-11-14T04:35:33.685Z,84.70
2017-11-14T04:38:00.085Z,84.70
2017-11-14T04:40:26.483Z,84.60
2017-11-14T04:42:52.929Z,84.60
2017-11-14T04:45:19.342Z,84.30
2017-11-14T04:47:45.767Z,84.10
2017-11-14T04:50:12.184Z,84.00
2017-11-14T04:52:38.639Z,83.60
2017-11-14T04:55:05.100Z,83.30
2017-11-14T04:57:31.483Z,83.40
2017-11-14T04:59:57.897Z,84.30
2017-11-14T05:02:25.020Z,84.60
2017-11-14T05:04:51.421Z,83.90
2017-11-14T05:07:17.826Z,83.60
2017-11-14T05:09:44.221Z,83.40
2017-11-14T05:12:12.105Z,83.60
2017-11-14T05:14:39.244Z,83.10
2017-11-14T05:17:07.105Z,83.10
2017-11-14T05:19:33.501Z,83.10
2017-11-14T05:21:59.888Z,83.30
2017-11-14T05:24:27.020Z,83.40
2017-11-14T05:26:53.409Z,83.40
2017-11-14T05:29:19.815Z,82.80
2017-11-14T05:31:46.247Z,83.10
2017-11-14T05:34:12.680Z,83.20
2017-11-14T05:36:39.083Z,83.10
2017-11-14T05:39:06.241Z,83.70
2017-11-14T05:41:32.627Z,83.70
2017-11-14T05:43:59.015Z,84.70
2017-11-14T05:46:26.181Z,84.30
2017-11-14T05:48:52.583Z,84.30
2017-11-14T05:51:19.726Z,83.70
2017-11-14T05:53:46.902Z,83.40
2017-11-14T05:56:13.349Z,83.40
2017-11-14T05:58:39.748Z,83.80
2017-11-14T06:01:06.141Z,83.70
2017-11-14T06:03:32.597Z,83.70
2017-11-14T06:05:58.980Z,83.80
2017-11-14T06:08:25.440Z,84.00
2017-11-14T06:10:51.964Z,83.90
2017-11-14T06:13:18.381Z,83.90
2017-11-14T06:15:44.813Z,83.90
2017-11-14T06:18:11.204Z,83.80
2017-11-14T06:20:38.373Z,83.70
2017-11-14T06:23:04.767Z,83.70
2017-11-14T06:25:31.157Z,84.00
2017-11-14T06:27:57.536Z,84.40
2017-11-14T06:30:23.969Z,84.50
2017-11-14T06:32:50.404Z,85.20
2017-11-14T06:35:16.817Z,85.00
2017-11-14T06:37:43.235Z,84.70
2017-11-14T06:40:09.679Z,84.70
2017-11-14T06:42:36.122Z,84.80
2017-11-14T06:45:04.052Z,84.50
2017-11-14T06:47:30.445Z,84.40
2017-11-14T06:49:57.640Z,84.00
2017-11-14T06:52:24.037Z,84.00
2017-11-14T06:54:51.201Z,83.90
2017-11-14T06:57:18.335Z,84.00
2017-11-14T06:59:45.529Z,83.70
2017-11-14T07:02:11.958Z,83.60
2017-11-14T07:04:38.379Z,83.70
2017-11-14T07:07:04.808Z,83.20
2017-11-14T07:09:31.220Z,82.40
2017-11-14T07:11:58.361Z,82.60
2017-11-14T07:14:25.568Z,82.00
2017-11-14T07:16:51.999Z,82.00
2017-11-14T07:19:18.373Z,82.70
2017-11-14T07:21:45.534Z,82.80
2017-11-14T07:24:12.688Z,82.60
2017-11-14T07:26:39.823Z,82.20
2017-11-14T07:29:06.256Z,82.20
2017-11-14T07:31:32.664Z,82.40
2017-11-14T07:33:59.072Z,81.80
2017-11-14T07:36:25.454Z,81.10
2017-11-14T07:38:52.584Z,80.40
2017-11-14T07:41:18.980Z,80.40
2017-11-14T07:43:45.366Z,80.40
2017-11-14T07:46:11.768Z,80.70
2017-11-14T07:48:38.162Z,80.80
2017-11-14T07:51:04.548Z,81.40
2017-11-14T07:53:30.941Z,81.70
2017-11-14T07:55:57.327Z,81.40
2017-11-14T07:58:24.458Z,79.00
2017-11-14T08:00:50.844Z,79.10
2017-11-14T08:03:17.300Z,77.20
2017-11-14T08:05:43.765Z,77.00
2017-11-14T08:08:10.934Z,76.10
2017-11-14T08:10:38.112Z,75.20
2017-11-14T08:13:04.523Z,75.10
2017-11-14T08:15:30.980Z,74.30
2017-11-14T08:17:58.089Z,75.70
2017-11-14T08:20:25.224Z,73.30
2017-11-14T08:22:51.599Z,73.30
2017-11-14T08:25:23.999Z,72.90
2017-11-14T08:27:50.386Z,73.70
2017-11-14T08:30:16.773Z,74.60
2017-11-14T08:32:43.253Z,76.30
2017-11-14T08:35:09.688Z,77.00
2017-11-14T08:37:36.876Z,77.60
2017-11-14T08:40:03.299Z,77.60
2017-11-14T08:42:29.723Z,78.40
2017-11-14T08:44:56.129Z,78.40
2017-11-14T08:47:23.287Z,78.30
2017-11-14T08:49:50.433Z,77.70
2017-11-14T08:52:17.607Z,77.00
2017-11-14T08:54:44.008Z,77.00
2017-11-14T08:57:10.437Z,75.30
2017-11-14T08:59:37.584Z,74.60
2017-11-14T09:02:05.065Z,74.00
2017-11-14T09:04:31.490Z,74.20
2017-11-14T09:06:58.668Z,73.40
2017-11-14T09:09:25.131Z,73.10
2017-11-14T09:11:53.076Z,73.80
2017-11-14T09:14:19.593Z,73.70
2017-11-14T09:16:46.889Z,73.30
2017-11-14T09:19:14.849Z,71.70
2017-11-14T09:21:42.074Z,71.70
2017-11-14T09:24:08.510Z,71.90
2017-11-14T09:26:34.977Z,71.70
2017-11-14T09:29:01.416Z,70.60
2017-11-14T09:31:29.342Z,70.60
2017-11-14T09:33:55.740Z,70.60
2017-11-14T09:36:22.514Z,71.60
2017-11-14T09:38:48.984Z,71.20
2017-11-14T09:41:15.445Z,72.40
2017-11-14T09:43:42.618Z,70.00
2017-11-14T09:46:09.820Z,68.90
2017-11-14T09:48:36.264Z,68.90
2017-11-14T09:51:02.720Z,68.90
2017-11-14T09:53:29.918Z,68.70
2017-11-14T09:55:56.370Z,68.70
2017-11-14T09:58:22.819Z,70.50
2017-11-14T10:00:49.240Z,69.90
2017-11-14T10:03:15.660Z,70.00
2017-11-14T10:05:42.143Z,70.50
2017-11-14T10:08:08.620Z,70.40
2017-11-14T10:10:35.046Z,69.50
2017-11-14T10:13:01.486Z,69.30
2017-11-14T10:15:27.932Z,70.90
2017-11-14T10:17:54.383Z,71.20
2017-11-14T10:20:22.392Z,70.20
2017-11-14T10:22:48.861Z,70.20
2017-11-14T10:25:15.294Z,67.00
2017-11-14T10:27:41.729Z,69.10
2017-11-14T10:30:08.176Z,67.00
2017-11-14T10:32:34.651Z,66.90
2017-11-14T10:35:01.833Z,63.20
2017-11-14T10:37:28.276Z,63.10
2017-11-14T10:39:56.243Z,66.00
2017-11-14T10:42:22.702Z,66.00
2017-11-14T10:44:49.867Z,63.10
2017-11-14T10:47:16.293Z,63.10
2017-11-14T10:49:43.485Z,64.20
2017-11-14T10:52:09.953Z,63.70
2017-11-14T10:54:36.414Z,63.90
2017-11-14T10:57:02.884Z,64.10
2017-11-14T10:59:29.336Z,63.70
2017-11-14T11:01:55.852Z,60.70
2017-11-14T11:04:22.299Z,61.10
2017-11-14T11:06:48.724Z,61.90
2017-11-14T11:09:15.196Z,61.90
2017-11-14T11:11:41.654Z,62.00
2017-11-14T11:14:08.822Z,63.20
2017-11-14T11:16:35.290Z,63.20
2017-11-14T11:19:01.743Z,62.90
2017-11-14T11:21:28.182Z,64.10
2017-11-14T11:23:55.397Z,61.00
2017-11-14T11:26:21.839Z,61.40
2017-11-14T11:28:48.288Z,60.60
2017-11-14T11:31:14.837Z,60.80
2017-11-14T11:33:41.273Z,59.00
2017-11-14T11:36:07.955Z,58.90
2017-11-14T11:38:34.394Z,57.60
2017-11-14T11:41:00.843Z,57.30
2017-11-14T11:43:27.288Z,56.60
2017-11-14T11:45:53.731Z,55.90
2017-11-14T11:48:20.239Z,56.50
2017-11-14T11:50:46.723Z,58.90
2017-11-14T11:53:13.905Z,58.60
2017-11-14T11:55:40.533Z,59.10
2017-11-14T11:58:07.745Z,59.80
2017-11-14T12:00:34.963Z,60.50
2017-11-14T12:03:01.412Z,60.50
2017-11-14T12:05:27.866Z,59.70
2017-11-14T12:07:55.092Z,59.40
2017-11-14T12:10:21.601Z,60.00
2017-11-14T12:12:48.053Z,59.50
2017-11-14T12:15:14.517Z,60.10
2017-11-14T12:17:42.445Z,60.60
2017-11-14T12:20:08.890Z,60.60
2017-11-14T12:22:35.353Z,59.10
2017-11-14T12:25:03.277Z,60.70
2017-11-14T12:27:29.695Z,60.60
2017-11-14T12:29:56.134Z,60.00
2017-11-14T12:32:22.588Z,61.20
2017-11-14T12:34:49.059Z,60.90
2017-11-14T12:37:15.581Z,59.80
2017-11-14T12:39:42.021Z,61.80
2017-11-14T12:42:08.472Z,61.60
2017-11-14T12:44:35.636Z,59.20
2017-11-14T12:47:02.768Z,58.50
2017-11-14T12:49:29.936Z,58.30
2017-11-14T12:51:57.116Z,57.90
2017-11-14T12:54:23.527Z,57.90
2017-11-14T12:56:50.717Z,57.20
2017-11-14T12:59:17.133Z,57.20
2017-11-14T13:01:44.018Z,57.00
2017-11-14T13:04:11.399Z,56.70
2017-11-14T13:06:39.370Z,55.60
2017-11-14T13:09:06.530Z,55.20
2017-11-14T13:11:32.984Z,55.20
2017-11-14T13:13:59.441Z,54.30
2017-11-14T13:16:25.837Z,55.00
2017-11-14T13:18:52.232Z,54.20
2017-11-14T13:21:19.405Z,55.60
2017-11-14T13:23:46.580Z,55.10
2017-11-14T13:26:13.006Z,55.10
2017-11-14T13:28:39.508Z,56.60
2017-11-14T13:31:06.686Z,57.40
2017-11-14T13:33:33.156Z,57.20
2017-11-14T13:35:59.581Z,56.70
2017-11-14T13:38:26.028Z,57.30
2017-11-14T13:40:52.457Z,56.50
2017-11-14T13:43:18.852Z,55.70
2017-11-14T13:45:45.236Z,57.10
2017-11-14T13:48:13.129Z,56.20
2017-11-14T13:50:40.336Z,57.00
2017-11-14T13:53:06.725Z,57.00
2017-11-14T13:55:33.727Z,57.40
2017-11-14T13:58:00.174Z,58.40
2017-11-14T14:00:26.591Z,58.30
2017-11-14T14:02:52.981Z,59.50
2017-11-14T14:05:19.561Z,59.80
2017-11-14T14:07:46.003Z,60.00
2017-11-14T14:10:13.895Z,60.70
2017-11-14T14:12:41.019Z,60.60
2017-11-14T14:15:07.447Z,60.60
2017-11-14T14:17:33.848Z,60.80
2017-11-14T14:20:01.061Z,61.90
2017-11-14T14:22:28.207Z,60.90
2017-11-14T14:24:55.330Z,60.50
2017-11-14T14:27:23.273Z,60.70
2017-11-14T14:29:49.639Z,60.70
2017-11-14T14:32:16.018Z,59.70
2017-11-14T14:34:42.412Z,60.20
2017-11-14T14:37:08.785Z,59.90
2017-11-14T14:39:36.046Z,59.70
2017-11-14T14:42:02.531Z,60.30
2017-11-14T14:44:29.704Z,60.80
2017-11-14T14:46:56.114Z,60.80
2017-11-14T14:49:23.229Z,62.20
2017-11-14T14:51:51.239Z,62.10
2017-11-14T14:54:17.629Z,62.10
2017-11-14T14:56:44.130Z,62.40
2017-11-14T14:59:10.527Z,62.60
2017-11-14T15:01:37.665Z,62.40
2017-11-14T15:04:04.069Z,62.40
2017-11-14T15:06:31.309Z,63.50
2017-11-14T15:08:57.819Z,63.50
2017-11-14T15:11:24.260Z,63.70
2017-11-14T15:13:50.682Z,63.80
2017-11-14T15:16:17.147Z,63.60
2017-11-14T15:18:43.580Z,63.50
2017-11-14T15:21:10.009Z,64.20
2017-11-14T15:23:37.144Z,63.80
2017-11-14T15:26:03.578Z,63.80
2017-11-14T15:28:30.008Z,64.00
2017-11-14T15:30:56.488Z,65.20
2017-11-14T15:33:23.676Z,66.30
2017-11-14T15:35:50.124Z,66.30
2017-11-14T15:38:16.553Z,67.00
2017-11-14T15:40:42.998Z,68.30
2017-11-14T15:43:09.466Z,68.30
2017-11-14T15:45:35.969Z,68.60
2017-11-14T15:48:02.406Z,69.10
2017-11-14T15:50:28.846Z,69.20
2017-11-14T15:52:55.329Z,69.00
2017-11-14T15:55:22.529Z,69.30
2017-11-14T15:57:48.970Z,69.30
2017-11-14T16:00:15.579Z,70.10
2017-11-14T16:02:42.152Z,69.80
2017-11-14T16:05:08.593Z,70.80
2017-11-14T16:07:35.029Z,70.90
2017-11-14T16:10:01.963Z,70.30
2017-11-14T16:12:28.409Z,71.00
2017-11-14T16:14:54.878Z,70.50
2017-11-14T16:17:21.336Z,71.10
2017-11-14T16:19:47.791Z,71.70
2017-11-14T16:22:14.221Z,71.60
2017-11-14T16:24:40.689Z,71.40
2017-11-14T16:27:07.926Z,73.70
2017-11-14T16:29:34.387Z,73.70
2017-11-14T16:32:01.580Z,73.50
2017-11-14T16:34:28.038Z,73.50
2017-11-14T16:36:54.472Z,73.30
2017-11-14T16:39:20.950Z,73.80
2017-11-14T16:41:47.426Z,74.10
2017-11-14T16:44:13.929Z,74.00
2017-11-14T16:46:40.375Z,73.70
2017-11-14T16:49:06.839Z,74.10
2017-11-14T16:51:33.289Z,73.80
2017-11-14T16:54:00.493Z,73.20
2017-11-14T16:56:26.953Z,72.70
2017-11-14T16:58:53.493Z,73.70
2017-11-14T17:01:19.925Z,74.00
2017-11-14T17:03:46.377Z,74.30
2017-11-14T17:06:12.916Z,74.10
2017-11-14T17:08:40.141Z,74.80
2017-11-14T17:11:06.657Z,74.80
2017-11-14T17:13:33.126Z,75.50
2017-11-14T17:16:00.330Z,76.70
2017-11-14T17:18:27.783Z,76.70
2017-11-14T17:20:54.227Z,76.80
2017-11-14T17:23:20.667Z,77.00
2017-11-14T17:25:47.080Z,77.40
2017-11-14T17:28:13.531Z,77.70
2017-11-14T17:30:40.759Z,77.20
2017-11-14T17:33:07.170Z,77.20
2017-11-14T17:35:34.289Z,77.10
2017-11-14T17:38:00.693Z,77.10
2017-11-14T17:40:27.085Z,78.10
2017-11-14T17:42:54.251Z,77.40
2017-11-14T17:45:20.672Z,77.40
2017-11-14T17:47:47.789Z,77.30
2017-11-14T17:50:14.184Z,77.30
2017-11-14T17:52:40.611Z,78.00
2017-11-14T17:55:07.118Z,77.80
2017-11-14T17:57:33.597Z,76.90
2017-11-14T18:00:00.044Z,77.60
2017-11-14T18:02:26.457Z,78.20
2017-11-14T18:04:52.857Z,78.60
2017-11-14T18:07:20.014Z,77.40
2017-11-14T18:09:46.452Z,77.30
2017-11-14T18:12:12.856Z,78.20
2017-11-14T18:14:40.032Z,79.00
2017-11-14T18:17:06.434Z,79.00
2017-11-14T18:19:33.664Z,80.30
2017-11-14T18:22:00.790Z,80.30
2017-11-14T18:24:27.191Z,81.20
2017-11-14T18:26:55.190Z,82.20
2017-11-14T18:29:23.982Z,82.20
2017-11-14T18:31:50.385Z,82.10
2017-11-14T18:34:16.884Z,82.20
2017-11-14T18:36:43.266Z,81.70
2017-11-14T18:39:09.661Z,80.90
2017-11-14T18:41:37.113Z,79.90
2017-11-14T18:44:03.524Z,79.90
2017-11-14T18:46:30.932Z,80.60
2017-11-14T18:48:57.557Z,81.10
2017-11-14T18:51:23.984Z,80.50
2017-11-14T18:53:51.134Z,80.50
2017-11-14T18:56:18.264Z,81.20
2017-11-14T18:58:44.686Z,81.20
2017-11-14T19:01:11.103Z,82.10
2017-11-14T19:03:37.489Z,82.70
2017-11-14T19:06:04.649Z,83.60
2017-11-14T19:08:31.082Z,83.60
2017-11-14T19:10:57.502Z,83.70
2017-11-14T19:13:23.942Z,83.60
2017-11-14T19:15:50.384Z,83.40
2017-11-14T19:18:16.837Z,82.60
2017-11-14T19:20:43.293Z,81.90
2017-11-14T19:23:09.676Z,81.90
2017-11-14T19:25:36.090Z,81.10
2017-11-14T19:28:03.241Z,81.80
2017-11-14T19:30:29.644Z,81.80
2017-11-14T19:32:56.025Z,81.90
2017-11-14T19:35:22.416Z,82.60
2017-11-14T19:37:48.820Z,82.70
2017-11-14T19:40:15.192Z,82.50
2017-11-14T19:42:42.349Z,81.40
2017-11-14T19:45:09.529Z,81.50
2017-11-14T19:47:35.933Z,81.40
2017-11-14T19:50:02.395Z,82.70
2017-11-14T19:52:28.839Z,82.40
2017-11-14T19:54:55.294Z,82.30
2017-11-14T19:57:21.711Z,82.90
2017-11-14T19:59:48.110Z,83.30
2017-11-14T20:02:14.554Z,84.00
2017-11-14T20:04:40.975Z,83.90
2017-11-14T20:07:08.503Z,84.40
2017-11-14T20:09:35.686Z,83.10
2017-11-14T20:12:02.163Z,83.50
2017-11-14T20:14:28.600Z,82.90
2017-11-14T20:16:55.101Z,83.70
2017-11-14T20:19:21.545Z,83.10
2017-11-14T20:21:48.005Z,83.00
2017-11-14T20:24:14.412Z,82.90
2017-11-14T20:26:40.833Z,82.70
2017-11-14T20:29:07.240Z,81.90
2017-11-14T20:31:33.655Z,82.00
2017-11-14T20:34:00.804Z,82.90
2017-11-14T20:36:27.940Z,82.90
2017-11-14T20:38:54.391Z,82.90
2017-11-14T20:41:20.768Z,82.10
2017-11-14T20:43:47.283Z,83.50
2017-11-14T20:46:13.684Z,83.60
2017-11-14T20:48:40.837Z,83.60
2017-11-14T20:51:07.978Z,83.60
2017-11-14T20:53:35.148Z,81.90
2017-11-14T20:56:02.315Z,81.90
2017-11-14T20:58:28.743Z,81.90
2017-11-14T21:00:55.239Z,82.20
2017-11-14T21:03:21.730Z,82.20
2017-11-14T21:05:48.120Z,82.10
2017-11-14T21:08:15.293Z,81.50
2017-11-14T21:10:41.729Z,81.50
2017-11-14T21:13:08.167Z,82.30
2017-11-14T21:15:34.565Z,82.00
2017-11-14T21:18:01.711Z,81.80
2017-11-14T21:20:28.138Z,81.80
2017-11-14T21:22:55.308Z,82.30
2017-11-14T21:25:22.441Z,82.90
2017-11-14T21:27:48.837Z,82.90
2017-11-14T21:30:15.223Z,82.40
2017-11-14T21:32:42.369Z,82.70
2017-11-14T21:35:09.498Z,82.10
2017-11-14T21:37:36.632Z,82.30
2017-11-14T21:40:03.103Z,82.40
2017-11-14T21:42:29.578Z,82.30
2017-11-14T21:44:55.974Z,82.90
2017-11-14T21:47:23.105Z,83.10
2017-11-14T21:49:50.262Z,83.70
2017-11-14T21:52:17.406Z,83.10
2017-11-14T21:54:44.552Z,82.60
2017-11-14T21:57:10.956Z,82.50
2017-11-14T21:59:37.356Z,83.10
2017-11-14T22:02:03.756Z,83.70
2017-11-14T22:04:30.915Z,84.10
2017-11-14T22:06:58.054Z,84.30
2017-11-14T22:09:25.168Z,84.60
2017-11-14T22:11:51.552Z,84.60
2017-11-14T22:14:17.951Z,84.50
2017-11-14T22:16:44.516Z,84.40
2017-11-14T22:19:10.907Z,83.60
2017-11-14T22:21:37.326Z,83.40
2017-11-14T22:24:03.733Z,83.20
2017-11-14T22:26:30.170Z,82.60
2017-11-14T22:28:56.634Z,85.50
2017-11-14T22:31:23.130Z,86.90
2017-11-14T22:33:49.703Z,87.30
2017-11-14T22:36:16.117Z,87.80
2017-11-14T22:38:42.683Z,87.90
2017-11-14T22:41:09.108Z,86.20
2017-11-14T22:43:35.540Z,84.10
2017-11-14T22:46:02.024Z,84.20
2017-11-14T22:48:28.426Z,83.50
2017-11-14T22:50:56.299Z,83.90
2017-11-14T22:53:22.680Z,83.90
2017-11-14T22:55:49.125Z,84.20
2017-11-14T22:58:15.567Z,84.90
2017-11-14T23:00:41.976Z,85.50
2017-11-14T23:03:08.397Z,85.40
2017-11-14T23:05:34.783Z,86.30
2017-11-14T23:08:01.178Z,87.80
2017-11-14T23:10:27.584Z,88.20
2017-11-14T23:12:53.981Z,86.20
2017-11-14T23:15:21.131Z,85.10
2017-11-14T23:17:47.524Z,85.20
2017-11-14T23:20:13.967Z,84.80
2017-11-14T23:22:40.368Z,84.20
2017-11-14T23:25:06.768Z,83.60
2017-11-14T23:27:33.911Z,83.20
2017-11-14T23:30:00.307Z,83.20
2017-11-14T23:32:26.684Z,82.50
2017-11-14T23:34:53.831Z,81.70
2017-11-14T23:37:20.965Z,81.80
2017-11-14T23:39:48.850Z,82.50
2017-11-14T23:42:16.017Z,82.90
2017-11-14T23:44:42.456Z,82.90
2017-11-14T23:47:08.888Z,82.80
2017-11-14T23:49:35.387Z,83.50
2017-11-14T23:52:01.816Z,82.80
2017-11-14T23:54:28.193Z,83.20
2017-11-14T23:56:54.566Z,84.40
2017-11-14T23:59:22.449Z,84.50
